createdAt,value
2019-02-24T00:01:43.536Z,14.68
2019-02-24T00:04:12.458Z,15.20
2019-02-24T00:06:41.762Z,14.93
2019-02-24T00:09:10.772Z,14.10
2019-02-24T00:11:39.677Z,14.58
2019-02-24T00:14:08.595Z,13.38
2019-02-24T00:16:39.180Z,16.87
2019-02-24T00:19:08.112Z,15.93
2019-02-24T00:21:36.996Z,15.20
2019-02-24T00:24:06.032Z,16.42
2019-02-24T00:26:34.984Z,17.77
2019-02-24T00:29:03.924Z,15.05
2019-02-24T00:31:32.828Z,14.90
2019-02-24T00:34:01.828Z,16.35
2019-02-24T00:36:31.096Z,15.38
2019-02-24T00:38:59.997Z,15.70
2019-02-24T00:41:28.884Z,15.70
2019-02-24T00:43:57.935Z,14.95
2019-02-24T00:46:28.956Z,16.07
2019-02-24T00:48:57.871Z,15.58
2019-02-24T00:51:26.868Z,14.68
2019-02-24T00:53:55.880Z,15.48
2019-02-24T00:56:25.057Z,16.65
2019-02-24T00:58:57.303Z,15.85
2019-02-24T01:01:26.324Z,14.05
2019-02-24T01:03:55.512Z,15.43
2019-02-24T01:06:27.417Z,14.38
2019-02-24T01:08:56.417Z,14.63
2019-02-24T01:11:25.724Z,14.85
2019-02-24T01:13:54.652Z,15.18
2019-02-24T01:16:23.851Z,16.47
2019-02-24T01:18:52.788Z,15.13
2019-02-24T01:21:21.678Z,14.55
2019-02-24T01:23:52.638Z,18.43
2019-02-24T01:26:21.754Z,16.27
2019-02-24T01:28:50.916Z,17.35
2019-02-24T01:31:19.853Z,15.45
2019-02-24T01:33:49.081Z,14.85
2019-02-24T01:36:18.213Z,14.90
2019-02-24T01:38:47.213Z,14.33
2019-02-24T01:41:16.240Z,13.78
2019-02-24T01:43:45.107Z,15.55
2019-02-24T01:46:14.133Z,14.25
2019-02-24T01:48:43.308Z,13.50
2019-02-24T01:51:12.245Z,13.68
2019-02-24T01:53:41.488Z,15.23
2019-02-24T01:56:10.676Z,14.90
2019-02-24T01:58:39.632Z,14.23
2019-02-24T02:01:08.549Z,14.60
2019-02-24T02:03:37.428Z,18.00
2019-02-24T02:06:06.396Z,16.27
2019-02-24T02:08:35.428Z,13.80
2019-02-24T02:11:04.492Z,14.70
2019-02-24T02:13:33.621Z,14.70
2019-02-24T02:16:02.608Z,13.73
2019-02-24T02:18:31.478Z,13.20
2019-02-24T02:21:00.653Z,14.35
2019-02-24T02:23:32.437Z,13.67
2019-02-24T02:26:01.389Z,13.05
2019-02-24T02:28:30.244Z,13.90
2019-02-24T02:30:59.128Z,13.65
2019-02-24T02:33:27.968Z,13.88
2019-02-24T02:35:58.707Z,14.40
2019-02-24T02:38:27.905Z,13.48
2019-02-24T02:40:56.919Z,14.05
2019-02-24T02:43:25.735Z,14.55
2019-02-24T02:45:55.258Z,15.28
2019-02-24T02:48:24.031Z,13.75
2019-02-24T02:50:53.078Z,14.50
2019-02-24T02:53:21.890Z,13.53
2019-02-24T02:55:50.788Z,14.30
2019-02-24T02:58:19.594Z,15.05
2019-02-24T03:00:48.468Z,15.53
2019-02-24T03:03:17.367Z,13.35
2019-02-24T03:05:58.098Z,14.23
2019-02-24T03:08:46.466Z,15.30
2019-02-24T03:11:15.797Z,13.55
2019-02-24T03:13:44.681Z,16.07
2019-02-24T03:16:13.674Z,13.88
2019-02-24T03:18:42.567Z,14.23
2019-02-24T03:21:11.353Z,14.07
2019-02-24T03:23:40.470Z,14.28
2019-02-24T03:26:09.529Z,14.65
2019-02-24T03:28:38.324Z,17.23
2019-02-24T03:31:07.128Z,14.40
2019-02-24T03:33:35.904Z,14.30
2019-02-24T03:36:04.767Z,13.65
2019-02-24T03:38:33.827Z,15.15
2019-02-24T03:41:02.714Z,15.25
2019-02-24T03:43:31.577Z,15.10
2019-02-24T03:46:00.381Z,15.05
2019-02-24T03:48:29.165Z,14.90
2019-02-24T03:50:57.972Z,15.13
2019-02-24T03:53:26.954Z,14.03
2019-02-24T03:55:57.659Z,15.15
2019-02-24T03:58:26.779Z,16.48
2019-02-24T04:00:55.935Z,14.07
2019-02-24T04:03:24.782Z,14.95
2019-02-24T04:05:53.750Z,15.63
2019-02-24T04:08:22.555Z,14.80
2019-02-24T04:10:51.379Z,15.88
2019-02-24T04:13:20.295Z,14.83
2019-02-24T04:15:50.286Z,15.18
2019-02-24T04:18:19.422Z,16.20
2019-02-24T04:20:48.264Z,17.70
2019-02-24T04:23:17.088Z,15.48
2019-02-24T04:25:45.951Z,15.35
2019-02-24T04:28:14.713Z,16.10
2019-02-24T04:30:43.526Z,17.07
2019-02-24T04:33:12.585Z,15.90
2019-02-24T04:35:41.358Z,14.65
2019-02-24T04:38:10.159Z,15.05
2019-02-24T04:40:38.980Z,16.20
2019-02-24T04:43:08.079Z,15.28
2019-02-24T04:45:37.216Z,15.75
2019-02-24T04:48:06.000Z,15.93
2019-02-24T04:50:35.076Z,15.93
2019-02-24T04:53:03.859Z,15.03
2019-02-24T04:55:33.918Z,15.53
2019-02-24T04:58:02.875Z,16.57
2019-02-24T05:00:32.850Z,15.08
2019-02-24T05:03:01.807Z,15.20
2019-02-24T05:05:31.234Z,15.50
2019-02-24T05:08:00.153Z,16.32
2019-02-24T05:10:28.982Z,15.75
2019-02-24T05:12:57.767Z,18.12
2019-02-24T05:15:26.931Z,16.50
2019-02-24T05:17:55.718Z,16.02
2019-02-24T05:20:24.802Z,15.70
2019-02-24T05:22:53.642Z,14.60
2019-02-24T05:25:22.734Z,15.48
2019-02-24T05:27:52.267Z,15.78
2019-02-24T05:30:21.046Z,15.68
2019-02-24T05:32:49.867Z,16.20
2019-02-24T05:35:18.668Z,14.58
2019-02-24T05:37:47.788Z,14.58
2019-02-24T05:40:16.594Z,14.95
2019-02-24T05:42:45.381Z,15.55
2019-02-24T05:45:14.504Z,16.25
2019-02-24T05:47:43.388Z,16.57
2019-02-24T05:50:12.239Z,15.55
2019-02-24T05:52:41.076Z,17.27
2019-02-24T05:55:09.935Z,15.83
2019-02-24T05:57:39.002Z,15.35
2019-02-24T06:00:07.943Z,15.10
2019-02-24T06:02:36.977Z,14.55
2019-02-24T06:05:05.934Z,17.55
2019-02-24T06:07:34.993Z,15.15
2019-02-24T06:10:04.023Z,17.02
2019-02-24T06:12:32.866Z,15.48
2019-02-24T06:15:01.900Z,16.60
2019-02-24T06:17:30.767Z,15.98
2019-02-24T06:19:59.556Z,14.75
2019-02-24T06:22:28.383Z,16.75
2019-02-24T06:24:57.223Z,15.95
2019-02-24T06:27:26.022Z,15.38
2019-02-24T06:30:04.262Z,15.72
2019-02-24T06:32:25.422Z,16.77
2019-02-24T06:34:54.236Z,15.38
2019-02-24T06:37:23.032Z,15.63
2019-02-24T06:39:51.891Z,16.12
2019-02-24T06:42:20.690Z,15.48
2019-02-24T06:44:49.539Z,15.23
2019-02-24T06:47:18.365Z,16.25
2019-02-24T06:49:47.167Z,13.80
2019-02-24T06:52:15.949Z,15.85
2019-02-24T06:54:44.774Z,15.58
2019-02-24T06:57:13.559Z,15.17
2019-02-24T06:59:42.450Z,15.70
2019-02-24T07:02:11.243Z,15.18
2019-02-24T07:04:40.024Z,15.70
2019-02-24T07:07:08.895Z,14.80
2019-02-24T07:09:37.795Z,15.90
2019-02-24T07:12:06.591Z,15.88
2019-02-24T07:14:35.682Z,14.95
2019-02-24T07:17:04.458Z,16.65
2019-02-24T07:19:35.220Z,15.50
2019-02-24T07:22:03.750Z,15.35
2019-02-24T07:24:33.115Z,15.85
2019-02-24T07:27:02.158Z,15.68
2019-02-24T07:29:30.983Z,15.58
2019-02-24T07:31:59.871Z,15.00
2019-02-24T07:34:28.852Z,14.87
2019-02-24T07:36:57.799Z,14.93
2019-02-24T07:39:26.578Z,15.90
2019-02-24T07:41:55.373Z,15.48
2019-02-24T07:44:24.271Z,15.20
2019-02-24T07:46:53.034Z,14.60
2019-02-24T07:49:21.835Z,15.60
2019-02-24T07:51:50.622Z,14.78
2019-02-24T07:54:19.478Z,14.23
2019-02-24T07:56:48.294Z,14.60
2019-02-24T07:59:17.093Z,15.00
2019-02-24T08:01:45.906Z,16.15
2019-02-24T08:04:14.793Z,14.60
2019-02-24T08:06:43.598Z,15.70
2019-02-24T08:09:12.414Z,14.60
2019-02-24T08:11:41.327Z,14.18
2019-02-24T08:14:10.199Z,15.65
2019-02-24T08:16:38.982Z,16.25
2019-02-24T08:19:07.868Z,14.33
2019-02-24T08:21:37.046Z,15.23
2019-02-24T08:24:05.922Z,15.10
2019-02-24T08:26:34.754Z,14.98
2019-02-24T08:29:03.954Z,15.13
2019-02-24T08:31:33.055Z,13.85
2019-02-24T08:34:01.845Z,14.63
2019-02-24T08:36:30.617Z,13.67
2019-02-24T08:38:59.410Z,13.93
2019-02-24T08:41:28.997Z,14.40
2019-02-24T08:44:06.893Z,15.50
2019-02-24T08:46:35.698Z,14.97
2019-02-24T08:49:04.526Z,13.30
2019-02-24T08:51:33.315Z,13.90
2019-02-24T08:54:02.119Z,13.43
2019-02-24T08:56:30.874Z,13.48
2019-02-24T08:58:59.646Z,14.70
2019-02-24T09:01:28.534Z,14.03
2019-02-24T09:03:57.696Z,13.90
2019-02-24T09:06:26.458Z,14.90
2019-02-24T09:08:55.247Z,13.55
2019-02-24T09:11:23.989Z,12.60
2019-02-24T09:13:52.844Z,14.13
2019-02-24T09:16:21.627Z,13.10
2019-02-24T09:18:50.389Z,12.95
2019-02-24T09:21:19.233Z,12.63
2019-02-24T09:23:48.079Z,12.93
2019-02-24T09:26:16.879Z,13.57
2019-02-24T09:28:45.728Z,13.50
2019-02-24T09:31:14.519Z,13.17
2019-02-24T09:33:43.310Z,14.13
2019-02-24T09:36:12.081Z,13.88
2019-02-24T09:38:40.953Z,13.88
2019-02-24T09:41:09.823Z,13.25
2019-02-24T09:43:38.582Z,13.22
2019-02-24T09:46:07.386Z,13.72
2019-02-24T09:48:36.174Z,15.08
2019-02-24T09:51:05.056Z,14.05
2019-02-24T09:53:33.837Z,12.80
2019-02-24T09:56:02.640Z,13.43
2019-02-24T09:58:31.418Z,13.40
2019-02-24T10:01:00.277Z,13.50
2019-02-24T10:03:29.162Z,14.50
2019-02-24T10:05:57.941Z,13.85
2019-02-24T10:08:26.815Z,14.87
2019-02-24T10:10:57.306Z,12.85
2019-02-24T10:13:26.122Z,13.60
2019-02-24T10:15:54.943Z,13.35
2019-02-24T10:18:23.713Z,13.35
2019-02-24T10:20:52.483Z,12.90
2019-02-24T10:23:21.410Z,12.60
2019-02-24T10:25:50.326Z,12.95
2019-02-24T10:28:19.278Z,13.20
2019-02-24T10:30:48.524Z,12.55
2019-02-24T10:33:17.407Z,14.07
2019-02-24T10:35:46.207Z,13.38
2019-02-24T10:38:14.994Z,13.10
2019-02-24T10:40:43.902Z,13.38
2019-02-24T10:43:12.858Z,13.28
2019-02-24T10:45:41.708Z,12.93
2019-02-24T10:48:14.000Z,13.15
2019-02-24T10:50:41.115Z,13.32
2019-02-24T10:53:09.990Z,13.32
2019-02-24T10:55:38.806Z,13.30
2019-02-24T10:58:07.748Z,14.05
2019-02-24T11:00:37.004Z,12.37
2019-02-24T11:03:05.799Z,12.45
2019-02-24T11:05:34.678Z,13.68
2019-02-24T11:08:03.572Z,13.32
2019-02-24T11:10:32.543Z,13.80
2019-02-24T11:13:01.666Z,14.80
2019-02-24T11:15:32.415Z,16.02
2019-02-24T11:18:01.598Z,15.85
2019-02-24T11:20:30.486Z,14.78
2019-02-24T11:22:59.377Z,14.05
2019-02-24T11:25:28.580Z,15.25
2019-02-24T11:27:57.358Z,14.63
2019-02-24T11:30:26.490Z,14.28
2019-02-24T11:32:55.359Z,13.53
2019-02-24T11:35:24.223Z,14.38
2019-02-24T11:37:53.094Z,13.62
2019-02-24T11:40:22.022Z,14.38
2019-02-24T11:42:50.855Z,14.35
2019-02-24T11:45:19.671Z,13.70
2019-02-24T11:47:48.547Z,13.43
2019-02-24T11:50:17.323Z,13.62
2019-02-24T11:52:46.134Z,14.00
2019-02-24T11:55:15.066Z,14.00
2019-02-24T11:57:44.011Z,13.53
2019-02-24T12:00:13.123Z,14.38
2019-02-24T12:02:42.125Z,14.70
2019-02-24T12:05:11.491Z,13.57
2019-02-24T12:07:40.430Z,14.23
2019-02-24T12:10:09.464Z,12.60
2019-02-24T12:12:38.226Z,14.28
2019-02-24T12:15:08.638Z,13.45
2019-02-24T12:17:37.579Z,14.00
2019-02-24T12:20:08.842Z,13.13
2019-02-24T12:22:37.915Z,11.95
2019-02-24T12:25:07.339Z,14.18
2019-02-24T12:27:36.126Z,12.95
2019-02-24T12:30:05.987Z,12.98
2019-02-24T12:32:34.771Z,12.80
2019-02-24T12:35:03.725Z,12.78
2019-02-24T12:37:32.632Z,14.25
2019-02-24T12:40:01.475Z,13.70
2019-02-24T12:42:30.271Z,13.15
2019-02-24T12:44:59.066Z,12.35
2019-02-24T12:47:27.922Z,13.18
2019-02-24T12:50:03.220Z,15.08
2019-02-24T12:52:28.351Z,14.50
2019-02-24T12:54:57.150Z,13.97
2019-02-24T12:57:25.943Z,15.50
2019-02-24T12:59:54.758Z,15.23
2019-02-24T13:02:23.606Z,14.63
2019-02-24T13:04:52.434Z,12.90
2019-02-24T13:07:21.237Z,13.00
2019-02-24T13:09:50.008Z,12.43
2019-02-24T13:12:18.854Z,13.58
2019-02-24T13:14:47.666Z,11.55
2019-02-24T13:17:16.565Z,13.13
2019-02-24T13:19:45.570Z,13.00
2019-02-24T13:22:14.466Z,12.95
2019-02-24T13:24:43.635Z,13.30
2019-02-24T13:27:12.437Z,13.58
2019-02-24T13:29:41.250Z,12.33
2019-02-24T13:32:14.963Z,12.68
2019-02-24T13:34:40.829Z,12.43
2019-02-24T13:37:10.056Z,12.37
2019-02-24T13:39:38.855Z,14.25
2019-02-24T13:42:16.011Z,13.13
2019-02-24T13:44:44.919Z,12.88
2019-02-24T13:47:14.084Z,12.58
2019-02-24T13:49:43.140Z,12.28
2019-02-24T13:52:11.895Z,15.70
2019-02-24T13:54:40.888Z,13.53
2019-02-24T13:57:09.690Z,12.30
2019-02-24T13:59:38.755Z,12.78
2019-02-24T14:02:07.670Z,12.77
2019-02-24T14:04:36.550Z,11.80
2019-02-24T14:07:05.403Z,13.55
2019-02-24T14:09:34.170Z,12.63
2019-02-24T14:12:02.977Z,12.07
2019-02-24T14:14:31.726Z,11.68
2019-02-24T14:17:00.466Z,12.15
2019-02-24T14:19:29.262Z,11.65
2019-02-24T14:21:58.207Z,12.20
2019-02-24T14:24:27.051Z,12.27
2019-02-24T14:26:55.859Z,11.43
2019-02-24T14:29:25.111Z,12.55
2019-02-24T14:31:54.182Z,12.55
2019-02-24T14:34:22.969Z,14.07
2019-02-24T14:36:51.738Z,12.40
2019-02-24T14:39:22.194Z,12.55
2019-02-24T14:41:51.386Z,12.73
2019-02-24T14:44:20.443Z,13.53
2019-02-24T14:46:49.290Z,12.30
2019-02-24T14:49:18.398Z,13.43
2019-02-24T14:51:47.239Z,12.53
2019-02-24T14:54:16.055Z,12.58
2019-02-24T14:56:44.882Z,13.27
2019-02-24T14:59:14.155Z,11.73
2019-02-24T15:01:42.938Z,11.90
2019-02-24T15:04:11.999Z,12.90
2019-02-24T15:06:40.819Z,12.68
2019-02-24T15:09:09.674Z,12.95
2019-02-24T15:11:38.667Z,13.98
2019-02-24T15:14:07.476Z,13.00
2019-02-24T15:16:36.314Z,15.10
2019-02-24T15:19:05.202Z,12.00
2019-02-24T15:21:33.984Z,12.23
2019-02-24T15:24:03.262Z,13.20
2019-02-24T15:26:32.383Z,13.75
2019-02-24T15:29:01.243Z,12.70
2019-02-24T15:31:30.043Z,12.82
2019-02-24T15:33:58.846Z,12.53
2019-02-24T15:36:27.628Z,12.50
2019-02-24T15:38:56.490Z,12.57
2019-02-24T15:41:29.807Z,12.03
2019-02-24T15:43:55.847Z,13.30
2019-02-24T15:46:26.742Z,12.23
2019-02-24T15:48:55.307Z,12.93
2019-02-24T15:51:24.106Z,12.07
2019-02-24T15:53:52.883Z,12.35
2019-02-24T15:56:21.678Z,12.33
2019-02-24T15:58:50.445Z,12.90
2019-02-24T16:01:19.214Z,11.38
2019-02-24T16:03:48.347Z,13.55
2019-02-24T16:06:17.222Z,12.03
2019-02-24T16:08:45.996Z,13.22
2019-02-24T16:11:14.870Z,12.88
2019-02-24T16:13:43.639Z,14.10
2019-02-24T16:16:12.450Z,12.75
2019-02-24T16:18:41.298Z,13.08
2019-02-24T16:21:10.154Z,12.18
2019-02-24T16:23:38.958Z,14.15
2019-02-24T16:26:07.802Z,13.72
2019-02-24T16:28:36.861Z,14.63
2019-02-24T16:31:05.727Z,15.28
2019-02-24T16:33:34.614Z,14.78
2019-02-24T16:36:03.431Z,15.45
2019-02-24T16:38:32.266Z,15.23
2019-02-24T16:41:01.123Z,15.53
2019-02-24T16:43:29.992Z,14.33
2019-02-24T16:45:58.787Z,15.65
2019-02-24T16:48:27.595Z,17.02
2019-02-24T16:50:56.426Z,17.07
2019-02-24T16:53:25.351Z,15.08
2019-02-24T16:55:54.175Z,15.70
2019-02-24T16:58:23.030Z,17.12
2019-02-24T17:00:51.910Z,17.17
2019-02-24T17:03:20.807Z,17.67
2019-02-24T17:05:50.202Z,16.70
2019-02-24T17:08:19.049Z,17.73
2019-02-24T17:10:48.034Z,17.40
2019-02-24T17:13:16.857Z,19.13
2019-02-24T17:15:45.618Z,18.55
2019-02-24T17:18:14.462Z,21.40
2019-02-24T17:20:43.595Z,18.73
2019-02-24T17:23:12.472Z,18.87
2019-02-24T17:25:41.666Z,21.65
2019-02-24T17:28:10.614Z,19.92
2019-02-24T17:30:39.499Z,20.37
2019-02-24T17:33:08.418Z,23.22
2019-02-24T17:35:37.300Z,21.20
2019-02-24T17:38:06.218Z,24.52
2019-02-24T17:40:35.034Z,29.57
2019-02-24T17:43:03.893Z,25.80
2019-02-24T17:45:32.667Z,26.10
2019-02-24T17:48:01.683Z,31.02
2019-02-24T17:50:30.554Z,28.20
2019-02-24T17:52:59.760Z,27.70
2019-02-24T17:55:28.982Z,23.27
2019-02-24T17:57:57.854Z,24.77
2019-02-24T18:00:29.914Z,21.67
2019-02-24T18:02:58.747Z,21.50
2019-02-24T18:05:27.636Z,19.75
2019-02-24T18:07:56.498Z,23.20
2019-02-24T18:10:26.642Z,20.77
2019-02-24T18:12:55.528Z,22.90
2019-02-24T18:15:26.766Z,23.42
2019-02-24T18:17:58.568Z,19.77
2019-02-24T18:20:27.816Z,23.67
2019-02-24T18:22:56.616Z,21.87
2019-02-24T18:25:25.424Z,20.45
2019-02-24T18:27:54.318Z,22.30
2019-02-24T18:30:24.164Z,21.85
2019-02-24T18:32:53.152Z,22.30
2019-02-24T18:35:22.176Z,22.25
2019-02-24T18:37:51.034Z,23.20
2019-02-24T18:40:20.122Z,23.38
2019-02-24T18:42:49.113Z,22.50
2019-02-24T18:45:24.120Z,22.00
2019-02-24T18:47:53.378Z,21.07
2019-02-24T18:50:22.255Z,18.48
2019-02-24T18:52:51.142Z,22.05
2019-02-24T18:55:19.977Z,19.15
2019-02-24T18:57:48.990Z,19.37
2019-02-24T19:00:19.380Z,19.20
2019-02-24T19:02:50.158Z,18.27
2019-02-24T19:05:19.097Z,21.52
2019-02-24T19:07:47.963Z,21.55
2019-02-24T19:10:17.013Z,21.12
2019-02-24T19:12:45.956Z,23.02
2019-02-24T19:15:16.450Z,22.37
2019-02-24T19:17:45.410Z,23.00
2019-02-24T19:20:15.999Z,23.45
2019-02-24T19:22:45.027Z,21.77
2019-02-24T19:25:14.178Z,22.20
2019-02-24T19:27:43.131Z,22.13
2019-02-24T19:30:13.325Z,24.87
2019-02-24T19:32:42.215Z,22.35
2019-02-24T19:35:11.714Z,22.37
2019-02-24T19:37:40.601Z,21.27
2019-02-24T19:40:11.666Z,21.42
2019-02-24T19:42:40.635Z,22.80
2019-02-24T19:45:10.157Z,20.45
2019-02-24T19:47:39.131Z,24.65
2019-02-24T19:50:11.851Z,23.85
2019-02-24T19:52:40.627Z,22.77
2019-02-24T19:55:11.650Z,23.07
2019-02-24T19:57:40.442Z,22.00
2019-02-24T20:00:16.022Z,22.98
2019-02-24T20:02:44.902Z,22.65
2019-02-24T20:05:13.886Z,21.57
2019-02-24T20:07:42.919Z,23.55
2019-02-24T20:10:12.240Z,28.02
2019-02-24T20:12:41.107Z,28.17
2019-02-24T20:15:11.461Z,25.25
2019-02-24T20:17:40.317Z,25.75
2019-02-24T20:20:10.194Z,24.40
2019-02-24T20:22:38.963Z,25.35
2019-02-24T20:25:09.187Z,25.48
2019-02-24T20:27:37.967Z,24.57
2019-02-24T20:30:10.950Z,22.60
2019-02-24T20:32:39.767Z,22.65
2019-02-24T20:35:09.223Z,22.22
2019-02-24T20:37:38.168Z,22.73
2019-02-24T20:40:08.358Z,23.15
2019-02-24T20:42:37.276Z,23.73
2019-02-24T20:45:07.195Z,22.35
2019-02-24T20:47:38.418Z,20.87
2019-02-24T20:50:08.530Z,22.32
2019-02-24T20:52:37.406Z,21.40
2019-02-24T20:55:07.222Z,23.30
2019-02-24T20:57:36.050Z,22.95
2019-02-24T21:00:08.600Z,23.57
2019-02-24T21:02:38.926Z,24.27
2019-02-24T21:05:07.979Z,22.62
2019-02-24T21:07:36.778Z,24.12
2019-02-24T21:10:05.970Z,23.67
2019-02-24T21:12:34.776Z,22.73
2019-02-24T21:15:03.946Z,23.12
2019-02-24T21:17:32.809Z,23.98
2019-02-24T21:20:01.611Z,22.30
2019-02-24T21:22:30.434Z,22.30
2019-02-24T21:24:59.236Z,25.43
2019-02-24T21:27:28.054Z,24.52
2019-02-24T21:29:56.842Z,24.63
2019-02-24T21:32:25.656Z,22.87
2019-02-24T21:34:54.467Z,25.62
2019-02-24T21:37:23.251Z,24.20
2019-02-24T21:39:52.078Z,23.80
2019-02-24T21:42:21.114Z,22.95
2019-02-24T21:44:49.935Z,25.95
2019-02-24T21:47:18.882Z,24.87
2019-02-24T21:49:48.963Z,26.33
2019-02-24T21:52:17.834Z,27.55
2019-02-24T21:54:46.731Z,26.33
2019-02-24T21:57:16.321Z,28.98
2019-02-24T21:59:45.256Z,27.70
2019-02-24T22:02:14.448Z,28.83
2019-02-24T22:04:43.384Z,27.98
2019-02-24T22:07:12.318Z,28.10
2019-02-24T22:09:41.162Z,29.05
2019-02-24T22:12:10.270Z,30.30
2019-02-24T22:14:39.315Z,29.65
2019-02-24T22:17:08.120Z,28.90
2019-02-24T22:19:36.935Z,27.35
2019-02-24T22:22:05.794Z,27.07
2019-02-24T22:24:34.731Z,28.20
2019-02-24T22:27:03.610Z,28.07
2019-02-24T22:29:40.570Z,28.27
2019-02-24T22:32:09.594Z,29.92
2019-02-24T22:34:38.371Z,30.15
2019-02-24T22:37:07.268Z,28.45
2019-02-24T22:42:28.359Z,30.77
2019-02-24T22:44:57.246Z,33.45
2019-02-24T22:47:26.131Z,31.27
2019-02-24T22:49:55.212Z,32.38
2019-02-24T22:52:24.224Z,32.00
2019-02-24T22:54:53.107Z,31.00
2019-02-24T22:57:22.135Z,30.75
2019-02-24T22:59:50.943Z,29.87
2019-02-24T23:02:22.082Z,30.37
2019-02-24T23:04:50.960Z,28.47
2019-02-24T23:07:19.920Z,29.25
2019-02-24T23:09:48.830Z,28.95
2019-02-24T23:12:17.976Z,26.65
2019-02-24T23:14:47.989Z,27.95
2019-02-24T23:17:17.544Z,27.20
2019-02-24T23:27:53.619Z,26.97
2019-02-24T23:33:55.249Z,27.13
2019-02-24T23:36:24.229Z,25.72
2019-02-24T23:38:53.451Z,26.50
2019-02-24T23:41:22.308Z,24.32
2019-02-24T23:43:51.958Z,25.00
2019-02-24T23:46:21.526Z,24.57
2019-02-24T23:56:08.862Z,29.18
